createdAt,value
2016-10-04T00:00:43.143Z,0
2016-10-04T00:01:43.166Z,0
2016-10-04T00:02:43.188Z,0
2016-10-04T00:03:43.215Z,0
2016-10-04T00:04:43.227Z,0
2016-10-04T00:05:43.257Z,0
2016-10-04T00:06:43.327Z,0
2016-10-04T00:07:43.292Z,0
2016-10-04T00:08:43.627Z,0
2016-10-04T00:09:43.334Z,0
2016-10-04T00:10:43.354Z,0
2016-10-04T00:11:43.371Z,0
2016-10-04T00:12:43.391Z,0
2016-10-04T00:13:43.425Z,0
2016-10-04T00:14:43.436Z,0
2016-10-04T00:15:43.501Z,0
2016-10-04T00:16:43.472Z,0
2016-10-04T00:17:43.490Z,0
2016-10-04T00:18:43.493Z,0
2016-10-04T00:19:43.518Z,0
2016-10-04T00:20:43.539Z,0
2016-10-04T00:21:43.554Z,0
2016-10-04T00:22:43.572Z,0
2016-10-04T00:23:43.592Z,0
2016-10-04T00:24:43.614Z,0
2016-10-04T00:25:43.636Z,0
2016-10-04T00:26:43.648Z,0
2016-10-04T00:27:43.668Z,0
2016-10-04T00:28:43.688Z,0
2016-10-04T00:29:43.706Z,0
2016-10-04T00:30:43.729Z,0
2016-10-04T00:31:43.743Z,0
2016-10-04T00:32:43.764Z,0
2016-10-04T00:33:43.784Z,0
2016-10-04T00:34:43.805Z,0
2016-10-04T00:35:43.825Z,0
2016-10-04T00:36:43.849Z,0
2016-10-04T00:37:43.880Z,0
2016-10-04T00:38:43.885Z,0
2016-10-04T00:40:43.918Z,0
2016-10-04T00:41:43.955Z,0
2016-10-04T00:42:43.967Z,0
2016-10-04T00:43:43.989Z,0
2016-10-04T00:44:44.005Z,0
2016-10-04T00:45:44.021Z,0
2016-10-04T00:46:44.039Z,0
2016-10-04T00:47:44.062Z,0
2016-10-04T00:48:44.078Z,0
2016-10-04T00:49:44.106Z,0
2016-10-04T00:50:44.112Z,0
2016-10-04T00:51:44.136Z,0
2016-10-04T00:52:44.172Z,0
2016-10-04T00:53:44.173Z,0
2016-10-04T00:54:44.196Z,0
2016-10-04T00:55:44.223Z,0
2016-10-04T00:56:44.232Z,0
2016-10-04T00:57:44.253Z,0
2016-10-04T00:58:44.272Z,0
2016-10-04T00:59:44.292Z,0
2016-10-04T01:00:44.316Z,0
2016-10-04T01:01:44.329Z,0
2016-10-04T01:02:44.352Z,0
2016-10-04T01:03:44.380Z,0
2016-10-04T01:04:44.390Z,0
2016-10-04T01:05:44.412Z,0
2016-10-04T01:06:44.936Z,0
2016-10-04T01:07:44.469Z,0
2016-10-04T01:08:44.465Z,0
2016-10-04T01:09:44.601Z,0
2016-10-04T01:10:44.614Z,0
2016-10-04T01:11:44.635Z,0
2016-10-04T01:12:44.634Z,0
2016-10-04T01:13:44.654Z,0
2016-10-04T01:14:44.700Z,0
2016-10-04T01:15:44.758Z,0
2016-10-04T01:16:44.766Z,0
2016-10-04T01:17:44.778Z,0
2016-10-04T01:18:44.787Z,0
2016-10-04T01:19:44.783Z,0
2016-10-04T01:20:44.797Z,0
2016-10-04T01:21:44.938Z,0
2016-10-04T01:22:44.949Z,0
2016-10-04T01:23:44.950Z,0
2016-10-04T01:24:44.978Z,0
2016-10-04T01:25:44.972Z,0
2016-10-04T01:26:44.977Z,0
2016-10-04T01:27:44.927Z,0
2016-10-04T01:28:44.928Z,0
2016-10-04T01:29:44.955Z,0
2016-10-04T01:30:44.965Z,0
2016-10-04T01:31:44.972Z,0
2016-10-04T01:32:44.981Z,0
2016-10-04T01:33:45.355Z,0
2016-10-04T01:34:44.991Z,0
2016-10-04T01:35:45.001Z,0
2016-10-04T01:36:45.008Z,0
2016-10-04T01:37:45.040Z,0
2016-10-04T01:38:45.052Z,0
2016-10-04T01:39:45.086Z,0
2016-10-04T01:40:45.100Z,0
2016-10-04T01:41:45.108Z,0
2016-10-04T01:42:45.126Z,0
2016-10-04T01:43:45.145Z,0
2016-10-04T01:44:45.181Z,0
2016-10-04T01:45:45.187Z,0
2016-10-04T01:46:45.205Z,0
2016-10-04T01:47:45.226Z,0
2016-10-04T01:48:45.253Z,0
2016-10-04T01:49:45.269Z,0
2016-10-04T01:50:45.283Z,0
2016-10-04T01:51:45.303Z,0
2016-10-04T01:52:45.323Z,0
2016-10-04T01:53:45.350Z,0
2016-10-04T01:54:45.371Z,0
2016-10-04T01:55:45.374Z,0
2016-10-04T01:56:45.406Z,0
2016-10-04T01:57:45.425Z,0
2016-10-04T01:58:45.441Z,0
2016-10-04T01:59:45.461Z,0
2016-10-04T02:00:45.483Z,0
2016-10-04T02:01:45.490Z,0
2016-10-04T02:02:45.539Z,0
2016-10-04T02:03:45.550Z,0
2016-10-04T02:04:45.553Z,0
2016-10-04T02:05:45.591Z,0
2016-10-04T02:06:45.611Z,0
2016-10-04T02:07:45.611Z,0
2016-10-04T02:08:45.635Z,0
2016-10-04T02:09:45.647Z,0
2016-10-04T02:10:45.669Z,0
2016-10-04T02:11:45.695Z,0
2016-10-04T02:12:45.706Z,0
2016-10-04T02:13:45.728Z,0
2016-10-04T02:14:46.229Z,0
2016-10-04T02:15:45.862Z,0
2016-10-04T02:16:45.876Z,0
2016-10-04T02:17:46.117Z,0
2016-10-04T02:18:45.901Z,0
2016-10-04T02:19:45.910Z,0
2016-10-04T02:20:45.921Z,0
2016-10-04T02:21:45.937Z,0
2016-10-04T02:22:45.940Z,0
2016-10-04T02:23:45.930Z,0
2016-10-04T02:24:45.957Z,0
2016-10-04T02:25:45.961Z,0
2016-10-04T02:26:45.978Z,0
2016-10-04T02:27:46.010Z,0
2016-10-04T02:28:46.015Z,0
2016-10-04T02:29:46.039Z,0
2016-10-04T02:30:46.058Z,0
2016-10-04T02:31:46.076Z,0
2016-10-04T02:32:46.088Z,0
2016-10-04T02:33:46.116Z,0
2016-10-04T02:34:46.123Z,0
2016-10-04T02:35:46.156Z,0
2016-10-04T02:36:46.171Z,0
2016-10-04T02:37:46.192Z,0
2016-10-04T02:38:46.218Z,0
2016-10-04T02:39:46.227Z,0
2016-10-04T02:40:46.253Z,0
2016-10-04T02:41:46.275Z,0
2016-10-04T02:42:46.296Z,0
2016-10-04T02:43:46.323Z,0
2016-10-04T02:44:46.330Z,0
2016-10-04T02:45:46.350Z,0
2016-10-04T02:46:46.366Z,0
2016-10-04T02:47:46.386Z,0
2016-10-04T02:48:46.424Z,0
2016-10-04T02:49:46.425Z,0
2016-10-04T02:50:46.435Z,0
2016-10-04T02:51:46.477Z,0
2016-10-04T02:52:46.793Z,0
2016-10-04T02:53:46.497Z,0
2016-10-04T02:54:46.529Z,0
2016-10-04T02:55:46.539Z,0
2016-10-04T02:56:46.555Z,0
2016-10-04T02:57:46.581Z,0
2016-10-04T02:58:46.599Z,0
2016-10-04T02:59:46.927Z,0
2016-10-04T03:00:46.638Z,0
2016-10-04T03:01:46.661Z,0
2016-10-04T03:02:46.674Z,0
2016-10-04T03:03:46.693Z,0
2016-10-04T03:04:46.708Z,0
2016-10-04T03:05:46.734Z,0
2016-10-04T03:06:46.769Z,0
2016-10-04T03:07:46.769Z,0
2016-10-04T03:08:46.795Z,0
2016-10-04T03:09:46.805Z,0
2016-10-04T03:10:46.829Z,0
2016-10-04T03:11:46.870Z,0
2016-10-04T03:12:46.866Z,0
2016-10-04T03:13:46.891Z,0
2016-10-04T03:14:46.900Z,0
2016-10-04T03:15:46.931Z,0
2016-10-04T03:16:46.945Z,0
2016-10-04T03:17:46.985Z,0
2016-10-04T03:18:46.989Z,0
2016-10-04T03:19:47.029Z,0
2016-10-04T03:20:47.038Z,0
2016-10-04T03:21:47.044Z,0
2016-10-04T03:22:47.080Z,0
2016-10-04T03:23:47.081Z,0
2016-10-04T03:24:47.103Z,0
2016-10-04T03:25:47.118Z,0
2016-10-04T03:26:47.142Z,0
2016-10-04T03:27:47.170Z,0
2016-10-04T03:28:47.181Z,0
2016-10-04T03:29:47.195Z,0
2016-10-04T03:30:47.233Z,0
2016-10-04T03:31:47.235Z,0
2016-10-04T03:32:47.264Z,0
2016-10-04T03:33:47.279Z,0
2016-10-04T03:34:47.290Z,0
2016-10-04T03:35:47.319Z,0
2016-10-04T03:36:47.343Z,0
2016-10-04T03:37:47.358Z,0
2016-10-04T03:38:47.376Z,0
2016-10-04T03:39:47.704Z,0
2016-10-04T03:40:47.414Z,0
2016-10-04T03:41:47.549Z,0
2016-10-04T03:42:47.563Z,0
2016-10-04T03:43:47.877Z,0
2016-10-04T03:44:47.702Z,0
2016-10-04T03:45:47.718Z,0
2016-10-04T03:46:47.743Z,0
2016-10-04T03:47:47.736Z,0
2016-10-04T03:48:47.750Z,0
2016-10-04T03:49:47.879Z,0
2016-10-04T03:50:47.756Z,0
2016-10-04T03:51:48.075Z,0
2016-10-04T03:52:47.777Z,0
2016-10-04T03:53:47.795Z,0
2016-10-04T03:54:47.917Z,0
2016-10-04T03:55:47.926Z,0
2016-10-04T03:56:47.840Z,0
2016-10-04T03:57:48.154Z,0
2016-10-04T03:58:47.847Z,0
2016-10-04T03:59:47.939Z,0
2016-10-04T04:00:48.213Z,0
2016-10-04T04:01:48.236Z,0
2016-10-04T04:02:47.914Z,0
2016-10-04T04:03:48.294Z,0
2016-10-04T04:04:47.899Z,0
2016-10-04T04:05:47.901Z,0
2016-10-04T04:06:47.922Z,0
2016-10-04T04:07:47.939Z,0
2016-10-04T04:08:47.958Z,0
2016-10-04T04:09:47.982Z,0
2016-10-04T04:10:48.013Z,0
2016-10-04T04:11:48.020Z,0
2016-10-04T04:12:48.041Z,0
2016-10-04T04:13:48.057Z,0
2016-10-04T04:14:48.079Z,0
2016-10-04T04:15:48.221Z,0
2016-10-04T04:16:48.233Z,0
2016-10-04T04:17:48.446Z,0
2016-10-04T04:18:48.149Z,0
2016-10-04T04:19:48.483Z,0
2016-10-04T04:20:48.198Z,0
2016-10-04T04:21:48.208Z,0
2016-10-04T04:22:48.243Z,0
2016-10-04T04:23:48.260Z,0
2016-10-04T04:24:48.593Z,0
2016-10-04T04:25:48.470Z,0
2016-10-04T04:26:48.380Z,0
2016-10-04T04:27:48.431Z,0
2016-10-04T04:28:48.436Z,0
2016-10-04T04:29:48.684Z,0
2016-10-04T04:30:48.471Z,0
2016-10-04T04:31:48.895Z,0
2016-10-04T04:32:48.500Z,0
2016-10-04T04:33:48.495Z,0
2016-10-04T04:34:48.787Z,0
2016-10-04T04:35:48.502Z,0
2016-10-04T04:36:48.526Z,0
2016-10-04T04:37:48.557Z,0
2016-10-04T04:38:48.545Z,0
2016-10-04T04:39:48.560Z,0
2016-10-04T04:40:48.588Z,0
2016-10-04T04:41:48.611Z,0
2016-10-04T04:42:48.621Z,0
2016-10-04T04:43:48.644Z,0
2016-10-04T04:44:48.993Z,0
2016-10-04T04:45:48.754Z,0
2016-10-04T04:46:48.711Z,0
2016-10-04T04:47:49.156Z,0
2016-10-04T04:48:48.740Z,0
2016-10-04T04:49:49.188Z,0
2016-10-04T04:50:48.784Z,0
2016-10-04T04:51:48.813Z,0
2016-10-04T04:52:48.835Z,0
2016-10-04T04:53:48.840Z,0
2016-10-04T04:54:48.860Z,0
2016-10-04T04:55:48.971Z,0
2016-10-04T04:56:48.980Z,0
2016-10-04T04:57:48.978Z,0
2016-10-04T04:58:48.987Z,0
2016-10-04T04:59:48.995Z,0
2016-10-04T05:00:49.004Z,0
2016-10-04T05:01:49.013Z,0
2016-10-04T05:02:49.014Z,0
2016-10-04T05:03:49.036Z,0
2016-10-04T05:04:49.055Z,0
2016-10-04T05:05:49.072Z,0
2016-10-04T05:06:49.086Z,0
2016-10-04T05:07:49.115Z,0
2016-10-04T05:08:49.134Z,0
2016-10-04T05:09:49.268Z,0
2016-10-04T05:10:49.283Z,0
2016-10-04T05:11:49.398Z,0
2016-10-04T05:12:49.343Z,0
2016-10-04T05:13:49.227Z,0
2016-10-04T05:14:49.296Z,0
2016-10-04T05:15:49.307Z,0
2016-10-04T05:16:49.315Z,0
2016-10-04T05:17:49.313Z,0
2016-10-04T05:18:49.326Z,0
2016-10-04T05:19:49.350Z,0
2016-10-04T05:20:49.368Z,0
2016-10-04T05:21:49.389Z,0
2016-10-04T05:22:49.401Z,0
2016-10-04T05:23:49.620Z,0
2016-10-04T05:24:49.535Z,0
2016-10-04T05:25:49.677Z,0
2016-10-04T05:26:49.593Z,0
2016-10-04T05:27:49.594Z,0
2016-10-04T05:28:49.609Z,0
2016-10-04T05:29:49.637Z,0
2016-10-04T05:30:49.653Z,0
2016-10-04T05:31:49.657Z,0
2016-10-04T05:32:49.684Z,0
2016-10-04T05:33:49.694Z,0
2016-10-04T05:34:49.704Z,0
2016-10-04T05:35:49.714Z,0
2016-10-04T05:36:49.718Z,0
2016-10-04T05:37:49.722Z,0
2016-10-04T05:38:49.712Z,0
2016-10-04T05:39:49.731Z,0
2016-10-04T05:40:49.767Z,0
2016-10-04T05:41:49.777Z,0
2016-10-04T05:42:49.798Z,0
2016-10-04T05:43:49.816Z,0
2016-10-04T05:44:49.834Z,0
2016-10-04T05:45:49.854Z,0
2016-10-04T05:46:49.874Z,0
2016-10-04T05:47:49.890Z,0
2016-10-04T05:48:49.908Z,0
2016-10-04T05:49:49.955Z,0
2016-10-04T05:50:49.963Z,0
2016-10-04T05:51:49.971Z,0
2016-10-04T05:52:50.107Z,0
2016-10-04T05:53:50.116Z,0
2016-10-04T05:54:50.124Z,0
2016-10-04T05:55:50.064Z,0
2016-10-04T05:56:50.164Z,0
2016-10-04T05:57:50.092Z,0
2016-10-04T05:58:50.104Z,0
2016-10-04T05:59:50.125Z,0
2016-10-04T06:00:50.141Z,0
2016-10-04T06:01:50.171Z,0
2016-10-04T06:02:50.182Z,0
2016-10-04T06:03:50.210Z,0
2016-10-04T06:04:50.225Z,0
2016-10-04T06:05:50.238Z,0
2016-10-04T06:06:50.255Z,0
2016-10-04T06:07:50.277Z,0
2016-10-04T06:08:50.316Z,0
2016-10-04T06:09:50.313Z,0
2016-10-04T06:10:50.352Z,0
2016-10-04T06:11:50.361Z,0
2016-10-04T06:12:50.378Z,0
2016-10-04T06:13:50.398Z,0
2016-10-04T06:14:50.421Z,0
2016-10-04T06:15:50.437Z,0
2016-10-04T06:16:50.614Z,0
2016-10-04T06:17:50.600Z,0
2016-10-04T06:18:50.617Z,0
2016-10-04T06:19:50.710Z,0
2016-10-04T06:20:50.671Z,0
2016-10-04T06:21:50.678Z,0
2016-10-04T06:22:50.681Z,0
2016-10-04T06:23:50.692Z,0
2016-10-04T06:24:50.741Z,0
2016-10-04T06:25:50.704Z,0
2016-10-04T06:26:50.746Z,0
2016-10-04T06:27:50.769Z,0
2016-10-04T06:28:50.757Z,0
2016-10-04T06:29:50.796Z,0
2016-10-04T06:30:50.818Z,0
2016-10-04T06:31:50.807Z,0
2016-10-04T06:32:50.779Z,0
2016-10-04T06:33:50.789Z,0
2016-10-04T06:34:50.815Z,0
2016-10-04T06:35:50.829Z,0
2016-10-04T06:36:51.161Z,0
2016-10-04T06:37:50.873Z,0
2016-10-04T06:38:50.889Z,0
2016-10-04T06:39:50.900Z,5
2016-10-04T06:40:50.927Z,5
2016-10-04T06:41:50.956Z,5
2016-10-04T06:42:50.970Z,5
2016-10-04T06:43:51.048Z,5
2016-10-04T06:44:51.012Z,5
2016-10-04T06:45:51.024Z,5
2016-10-04T06:46:51.045Z,5
2016-10-04T06:47:51.056Z,5
2016-10-04T06:48:51.080Z,5
2016-10-04T06:49:51.106Z,5
2016-10-04T06:50:51.122Z,5
2016-10-04T06:51:51.149Z,5
2016-10-04T06:52:51.163Z,5
2016-10-04T06:53:51.177Z,5
2016-10-04T06:54:51.199Z,5
2016-10-04T06:55:51.218Z,5
2016-10-04T06:56:51.241Z,5
2016-10-04T06:57:51.578Z,0
2016-10-04T06:58:51.279Z,0
2016-10-04T06:59:51.413Z,0
2016-10-04T07:00:51.318Z,0
2016-10-04T07:01:51.342Z,0
2016-10-04T07:02:51.353Z,0
2016-10-04T07:03:51.382Z,0
2016-10-04T07:04:51.415Z,0
2016-10-04T07:05:51.416Z,0
2016-10-04T07:06:51.435Z,5
2016-10-04T07:07:51.455Z,5
2016-10-04T07:08:51.479Z,5
2016-10-04T07:09:51.494Z,0
2016-10-04T07:10:51.514Z,0
2016-10-04T07:11:51.534Z,0
2016-10-04T07:12:51.554Z,5
2016-10-04T07:13:51.573Z,0
2016-10-04T07:14:51.594Z,0
2016-10-04T07:15:51.609Z,0
2016-10-04T07:16:51.640Z,0
2016-10-04T07:17:51.652Z,0
2016-10-04T07:18:51.779Z,5
2016-10-04T07:19:51.788Z,5
2016-10-04T07:20:51.809Z,5
2016-10-04T07:21:51.818Z,5
2016-10-04T07:22:51.827Z,5
2016-10-04T07:23:51.836Z,5
2016-10-04T07:24:51.846Z,5
2016-10-04T07:25:51.844Z,0
2016-10-04T07:26:51.854Z,5
2016-10-04T07:27:51.863Z,5
2016-10-04T07:28:51.876Z,5
2016-10-04T07:29:51.892Z,5
2016-10-04T07:30:52.025Z,5
2016-10-04T07:31:51.948Z,5
2016-10-04T07:32:51.956Z,5
2016-10-04T07:33:51.966Z,5
2016-10-04T07:34:52.092Z,5
2016-10-04T07:35:52.090Z,5
2016-10-04T07:36:52.099Z,5
2016-10-04T07:37:52.130Z,5
2016-10-04T07:38:52.139Z,5
2016-10-04T07:39:52.150Z,5
2016-10-04T07:40:52.147Z,5
2016-10-04T07:41:52.156Z,5
2016-10-04T07:42:52.167Z,5
2016-10-04T07:43:52.156Z,5
2016-10-04T07:44:52.181Z,5
2016-10-04T07:45:52.202Z,5
2016-10-04T07:46:52.214Z,5
2016-10-04T07:47:52.248Z,5
2016-10-04T07:48:52.266Z,5
2016-10-04T07:49:52.275Z,5
2016-10-04T07:50:52.314Z,5
2016-10-04T07:51:52.320Z,5
2016-10-04T07:52:52.356Z,5
2016-10-04T07:53:52.369Z,5
2016-10-04T07:54:52.370Z,5
2016-10-04T07:55:52.400Z,5
2016-10-04T07:56:52.414Z,5
2016-10-04T07:57:52.444Z,5
2016-10-04T07:58:52.459Z,5
2016-10-04T07:59:52.473Z,5
2016-10-04T08:00:52.499Z,5
2016-10-04T08:01:52.516Z,5
2016-10-04T08:02:52.848Z,5
2016-10-04T08:03:52.556Z,10
2016-10-04T08:04:52.589Z,5
2016-10-04T08:05:52.599Z,5
2016-10-04T08:06:52.617Z,5
2016-10-04T08:07:52.629Z,10
2016-10-04T08:08:52.653Z,10
2016-10-04T08:09:52.671Z,10
2016-10-04T08:10:52.684Z,10
2016-10-04T08:11:52.708Z,10
2016-10-04T08:12:52.730Z,10
2016-10-04T08:13:52.791Z,10
2016-10-04T08:14:53.082Z,10
2016-10-04T08:15:52.783Z,10
2016-10-04T08:16:52.818Z,10
2016-10-04T08:17:52.840Z,10
2016-10-04T08:18:52.848Z,10
2016-10-04T08:19:52.866Z,10
2016-10-04T08:20:52.888Z,15
2016-10-04T08:21:52.908Z,15
2016-10-04T08:22:52.926Z,15
2016-10-04T08:23:52.947Z,20
2016-10-04T08:24:52.967Z,20
2016-10-04T08:25:52.990Z,20
2016-10-04T08:26:53.004Z,15
2016-10-04T08:27:53.029Z,10
2016-10-04T08:28:53.049Z,5
2016-10-04T08:29:53.063Z,5
2016-10-04T08:30:53.100Z,5
2016-10-04T08:31:53.105Z,5
2016-10-04T08:32:53.130Z,5
2016-10-04T08:33:53.145Z,5
2016-10-04T08:34:53.172Z,5
2016-10-04T08:35:53.183Z,5
2016-10-04T08:36:53.205Z,5
2016-10-04T08:37:53.220Z,5
2016-10-04T08:38:53.244Z,5
2016-10-04T08:39:53.317Z,5
2016-10-04T08:40:53.293Z,5
2016-10-04T08:41:53.300Z,5
2016-10-04T08:42:53.318Z,5
2016-10-04T08:43:53.346Z,5
2016-10-04T08:44:53.367Z,5
2016-10-04T08:45:53.378Z,5
2016-10-04T08:46:53.410Z,5
2016-10-04T08:47:53.422Z,5
2016-10-04T08:48:53.431Z,5
2016-10-04T08:49:53.458Z,5
2016-10-04T08:50:53.480Z,5
2016-10-04T08:51:53.822Z,5
2016-10-04T08:52:53.521Z,10
2016-10-04T08:53:53.536Z,10
2016-10-04T08:54:53.565Z,10
2016-10-04T08:55:53.582Z,5
2016-10-04T08:56:53.596Z,10
2016-10-04T08:57:53.616Z,10
2016-10-04T08:58:53.634Z,10
2016-10-04T08:59:53.764Z,25
2016-10-04T09:00:53.918Z,20
2016-10-04T09:01:53.927Z,5
2016-10-04T09:02:53.936Z,15
2016-10-04T09:03:53.944Z,10
2016-10-04T09:04:53.975Z,15
2016-10-04T09:05:53.958Z,15
2016-10-04T09:06:53.966Z,15
2016-10-04T09:07:53.976Z,25
2016-10-04T09:08:53.985Z,25
2016-10-04T09:09:53.993Z,25
2016-10-04T09:10:53.991Z,15
2016-10-04T09:11:54.001Z,25
2016-10-04T09:12:54.050Z,20
2016-10-04T09:13:54.060Z,15
2016-10-04T09:14:54.059Z,25
2016-10-04T09:15:54.071Z,15
2016-10-04T09:16:54.076Z,30
2016-10-04T09:17:54.319Z,30
2016-10-04T09:18:54.093Z,20
2016-10-04T09:19:54.137Z,15
2016-10-04T09:20:54.139Z,20
2016-10-04T09:21:54.175Z,10
2016-10-04T09:22:54.180Z,10
2016-10-04T09:23:54.191Z,10
2016-10-04T09:24:54.196Z,20
2016-10-04T09:25:54.166Z,20
2016-10-04T09:26:54.188Z,20
2016-10-04T09:27:54.206Z,25
2016-10-04T09:28:54.228Z,10
2016-10-04T09:29:54.247Z,15
2016-10-04T09:30:54.267Z,15
2016-10-04T09:31:54.290Z,15
2016-10-04T09:32:54.303Z,15
2016-10-04T09:33:54.335Z,20
2016-10-04T09:34:54.351Z,10
2016-10-04T09:35:54.377Z,10
2016-10-04T09:36:54.400Z,20
2016-10-04T09:37:54.420Z,35
2016-10-04T09:38:54.424Z,25
2016-10-04T09:39:54.449Z,20
2016-10-04T09:40:54.466Z,20
2016-10-04T09:41:54.494Z,20
2016-10-04T09:42:54.515Z,20
2016-10-04T09:43:54.526Z,30
2016-10-04T09:44:54.549Z,20
2016-10-04T09:45:54.564Z,20
2016-10-04T09:46:54.588Z,15
2016-10-04T09:47:54.615Z,10
2016-10-04T09:48:54.625Z,25
2016-10-04T09:49:54.650Z,20
2016-10-04T09:50:54.660Z,10
2016-10-04T09:51:54.698Z,10
2016-10-04T09:52:54.719Z,10
2016-10-04T09:53:54.738Z,10
2016-10-04T09:54:54.772Z,5
2016-10-04T09:55:54.769Z,10
2016-10-04T09:56:54.794Z,10
2016-10-04T09:57:54.807Z,10
2016-10-04T09:58:55.169Z,10
2016-10-04T09:59:54.851Z,10
2016-10-04T10:00:54.866Z,20
2016-10-04T10:01:54.893Z,15
2016-10-04T10:02:54.912Z,10
2016-10-04T10:03:54.928Z,10
2016-10-04T10:04:54.956Z,5
2016-10-04T10:05:54.974Z,15
2016-10-04T10:06:54.994Z,15
2016-10-04T10:07:55.033Z,15
2016-10-04T10:08:55.039Z,15
2016-10-04T10:09:55.052Z,10
2016-10-04T10:10:55.075Z,15
2016-10-04T10:11:55.406Z,15
2016-10-04T10:12:55.135Z,10
2016-10-04T10:13:55.136Z,10
2016-10-04T10:14:55.160Z,15
2016-10-04T10:15:55.186Z,10
2016-10-04T10:16:55.197Z,10
2016-10-04T10:17:55.219Z,10
2016-10-04T10:18:55.244Z,10
2016-10-04T10:19:55.259Z,10
2016-10-04T10:20:55.282Z,10
2016-10-04T10:21:55.301Z,10
2016-10-04T10:22:55.323Z,10
2016-10-04T10:23:55.338Z,10
2016-10-04T10:24:55.361Z,5
2016-10-04T10:25:55.380Z,10
2016-10-04T10:26:55.408Z,5
2016-10-04T10:27:55.422Z,10
2016-10-04T10:28:55.439Z,10
2016-10-04T10:29:55.471Z,10
2016-10-04T10:30:55.481Z,15
2016-10-04T10:31:55.510Z,15
2016-10-04T10:32:55.527Z,10
2016-10-04T10:33:55.550Z,15
2016-10-04T10:34:55.569Z,15
2016-10-04T10:35:55.593Z,20
2016-10-04T10:36:55.928Z,15
2016-10-04T10:37:55.628Z,15
2016-10-04T10:38:55.649Z,15
2016-10-04T10:39:55.781Z,15
2016-10-04T10:40:55.782Z,25
2016-10-04T10:41:55.833Z,15
2016-10-04T10:42:55.942Z,10
2016-10-04T10:43:55.960Z,10
2016-10-04T10:44:55.957Z,15
2016-10-04T10:45:55.913Z,10
2016-10-04T10:46:55.978Z,5
2016-10-04T10:47:55.982Z,15
2016-10-04T10:48:56.003Z,15
2016-10-04T10:49:55.995Z,5
2016-10-04T10:50:56.309Z,15
2016-10-04T10:51:56.143Z,15
2016-10-04T10:52:56.152Z,15
2016-10-04T10:53:56.159Z,15
2016-10-04T10:54:56.064Z,15
2016-10-04T10:55:56.129Z,15
2016-10-04T10:56:56.124Z,15
2016-10-04T10:57:56.130Z,15
2016-10-04T10:58:56.146Z,15
2016-10-04T10:59:56.160Z,20
2016-10-04T11:00:56.166Z,25
2016-10-04T11:01:56.176Z,20
2016-10-04T11:02:56.189Z,25
2016-10-04T11:03:56.181Z,15
2016-10-04T11:04:56.206Z,15
2016-10-04T11:05:56.213Z,15
2016-10-04T11:06:56.256Z,15
2016-10-04T11:07:56.253Z,15
2016-10-04T11:08:56.280Z,15
2016-10-04T11:09:56.298Z,30
2016-10-04T11:10:56.355Z,25
2016-10-04T11:11:56.354Z,15
2016-10-04T11:12:56.359Z,15
2016-10-04T11:13:56.385Z,20
2016-10-04T11:14:56.419Z,10
2016-10-04T11:15:56.433Z,20
2016-10-04T11:16:56.446Z,15
2016-10-04T11:17:56.565Z,20
2016-10-04T11:18:56.494Z,25
2016-10-04T11:19:56.524Z,25
2016-10-04T11:20:56.551Z,30
2016-10-04T11:21:56.572Z,20
2016-10-04T11:22:56.900Z,25
2016-10-04T11:23:56.606Z,35
2016-10-04T11:24:56.634Z,25
2016-10-04T11:25:56.660Z,20
2016-10-04T11:26:56.663Z,15
2016-10-04T11:27:56.688Z,10
2016-10-04T11:28:56.713Z,10
2016-10-04T11:29:56.732Z,10
2016-10-04T11:30:56.752Z,10
2016-10-04T11:31:56.776Z,10
2016-10-04T11:32:56.790Z,10
2016-10-04T11:33:56.824Z,10
2016-10-04T11:34:56.842Z,10
2016-10-04T11:35:56.862Z,10
2016-10-04T11:36:57.212Z,10
2016-10-04T11:37:56.907Z,15
2016-10-04T11:38:57.239Z,20
2016-10-04T11:39:56.947Z,30
2016-10-04T11:40:56.981Z,25
2016-10-04T11:41:56.992Z,35
2016-10-04T11:42:57.021Z,20
2016-10-04T11:43:57.034Z,25
2016-10-04T11:44:57.052Z,15
2016-10-04T11:45:57.082Z,25
2016-10-04T11:46:57.100Z,15
2016-10-04T11:47:57.121Z,15
2016-10-04T11:48:57.152Z,15
2016-10-04T11:49:57.170Z,15
2016-10-04T11:50:57.188Z,20
2016-10-04T11:51:57.212Z,35
2016-10-04T11:52:57.234Z,35
2016-10-04T11:53:57.262Z,35
2016-10-04T11:54:57.276Z,40
2016-10-04T11:55:57.301Z,25
2016-10-04T11:56:57.320Z,25
2016-10-04T11:57:57.341Z,20
2016-10-04T11:58:57.360Z,20
2016-10-04T11:59:57.385Z,20
2016-10-04T12:00:57.403Z,10
2016-10-04T12:01:57.433Z,10
2016-10-04T12:02:57.452Z,15
2016-10-04T12:03:57.479Z,15
2016-10-04T12:04:57.502Z,10
2016-10-04T12:05:57.514Z,10
2016-10-04T12:06:57.541Z,10
2016-10-04T12:07:57.567Z,10
2016-10-04T12:08:57.580Z,10
2016-10-04T12:09:57.607Z,10
2016-10-04T12:10:57.629Z,10
2016-10-04T12:11:57.656Z,15
2016-10-04T12:12:57.675Z,15
2016-10-04T12:13:57.810Z,10
2016-10-04T12:14:57.813Z,10
2016-10-04T12:15:57.824Z,10
2016-10-04T12:16:57.844Z,10
2016-10-04T12:17:58.018Z,10
2016-10-04T12:18:58.016Z,10
2016-10-04T12:19:58.035Z,15
2016-10-04T12:20:58.044Z,15
2016-10-04T12:21:58.054Z,25
2016-10-04T12:22:58.082Z,20
2016-10-04T12:23:58.100Z,15
2016-10-04T12:24:58.105Z,15
2016-10-04T12:25:58.114Z,25
2016-10-04T12:26:58.122Z,20
2016-10-04T12:27:58.139Z,15
2016-10-04T12:28:58.129Z,10
2016-10-04T12:29:58.147Z,5
2016-10-04T12:30:58.166Z,5
2016-10-04T12:31:58.196Z,10
2016-10-04T12:32:58.564Z,10
2016-10-04T12:33:58.228Z,10
2016-10-04T12:34:58.234Z,15
2016-10-04T12:35:58.190Z,15
2016-10-04T12:36:58.218Z,10
2016-10-04T12:37:58.235Z,10
2016-10-04T12:38:58.254Z,10
2016-10-04T12:39:58.278Z,10
2016-10-04T12:40:58.299Z,5
2016-10-04T12:41:58.324Z,5
2016-10-04T12:42:58.347Z,10
2016-10-04T12:43:58.371Z,5
2016-10-04T12:44:58.398Z,5
2016-10-04T12:45:58.417Z,10
2016-10-04T12:46:58.444Z,10
2016-10-04T12:47:58.774Z,10
2016-10-04T12:48:58.481Z,10
2016-10-04T12:49:58.526Z,10
2016-10-04T12:50:58.528Z,10
2016-10-04T12:51:58.560Z,10
2016-10-04T12:52:58.591Z,10
2016-10-04T12:53:58.599Z,10
2016-10-04T12:54:58.625Z,10
2016-10-04T12:55:58.648Z,10
2016-10-04T12:56:58.687Z,10
2016-10-04T12:57:58.692Z,10
2016-10-04T12:58:58.720Z,10
2016-10-04T12:59:58.742Z,5
2016-10-04T13:00:59.075Z,5
2016-10-04T13:01:58.785Z,5
2016-10-04T13:02:58.806Z,5
2016-10-04T13:03:59.138Z,5
2016-10-04T13:04:58.851Z,5
2016-10-04T13:05:58.869Z,5
2016-10-04T13:06:58.903Z,5
2016-10-04T13:07:58.915Z,5
2016-10-04T13:08:58.953Z,5
2016-10-04T13:09:58.962Z,5
2016-10-04T13:10:58.999Z,5
2016-10-04T13:11:59.015Z,5
2016-10-04T13:12:59.047Z,5
2016-10-04T13:13:59.376Z,5
2016-10-04T13:14:59.074Z,5
2016-10-04T13:15:59.103Z,5
2016-10-04T13:16:59.136Z,5
2016-10-04T13:17:59.469Z,5
2016-10-04T13:18:59.173Z,5
2016-10-04T13:19:59.189Z,5
2016-10-04T13:20:59.224Z,5
2016-10-04T13:21:59.239Z,10
2016-10-04T13:22:59.580Z,10
2016-10-04T13:23:59.285Z,10
2016-10-04T13:24:59.309Z,5
2016-10-04T13:25:59.335Z,5
2016-10-04T13:26:59.355Z,10
2016-10-04T13:27:59.381Z,10
2016-10-04T13:28:59.401Z,5
2016-10-04T13:29:59.753Z,5
2016-10-04T13:30:59.443Z,5
2016-10-04T13:31:59.475Z,5
2016-10-04T13:32:59.495Z,10
2016-10-04T13:33:59.525Z,10
2016-10-04T13:34:59.548Z,10
2016-10-04T13:35:59.558Z,10
2016-10-04T13:36:59.585Z,10
2016-10-04T13:37:59.612Z,10
2016-10-04T13:38:59.641Z,10
2016-10-04T13:39:59.661Z,10
2016-10-04T13:40:59.681Z,10
2016-10-04T13:41:59.699Z,10
2016-10-04T13:42:59.723Z,10
2016-10-04T13:43:59.864Z,10
2016-10-04T13:44:59.862Z,10
2016-10-04T13:45:59.877Z,10
2016-10-04T13:47:00.058Z,10
2016-10-04T13:48:00.062Z,10
2016-10-04T13:49:00.070Z,10
2016-10-04T13:50:00.078Z,10
2016-10-04T13:51:00.091Z,10
2016-10-04T13:52:00.110Z,10
2016-10-04T13:53:00.141Z,10
2016-10-04T13:54:00.156Z,10
2016-10-04T13:55:00.196Z,10
2016-10-04T13:56:00.159Z,10
2016-10-04T13:57:00.486Z,10
2016-10-04T13:58:00.175Z,10
2016-10-04T13:59:00.184Z,10
2016-10-04T14:00:00.262Z,10
2016-10-04T14:01:00.234Z,10
2016-10-04T14:02:00.249Z,10
2016-10-04T14:03:00.273Z,10
2016-10-04T14:04:00.281Z,10
2016-10-04T14:05:00.337Z,10
2016-10-04T14:06:00.259Z,10
2016-10-04T14:07:00.275Z,10
2016-10-04T14:08:00.302Z,10
2016-10-04T14:09:00.324Z,10
2016-10-04T14:10:00.349Z,10
2016-10-04T14:11:00.367Z,10
2016-10-04T14:12:00.396Z,10
2016-10-04T14:13:00.417Z,10
2016-10-04T14:14:00.443Z,10
2016-10-04T14:15:00.472Z,10
2016-10-04T14:16:00.484Z,10
2016-10-04T14:17:00.509Z,10
2016-10-04T14:18:00.530Z,10
2016-10-04T14:19:00.557Z,10
2016-10-04T14:20:00.581Z,10
2016-10-04T14:21:00.600Z,10
2016-10-04T14:22:00.937Z,10
2016-10-04T14:23:00.645Z,10
2016-10-04T14:24:00.694Z,10
2016-10-04T14:25:00.702Z,10
2016-10-04T14:26:00.716Z,10
2016-10-04T14:27:00.757Z,10
2016-10-04T14:28:01.096Z,10
2016-10-04T14:29:00.796Z,10
2016-10-04T14:30:00.838Z,10
2016-10-04T14:31:00.841Z,10
2016-10-04T14:32:00.876Z,10
2016-10-04T14:33:00.877Z,10
2016-10-04T14:34:00.914Z,10
2016-10-04T14:35:00.929Z,10
2016-10-04T14:36:00.963Z,10
2016-10-04T14:37:00.974Z,10